Time;durP1;ratioP1;P1;durP2;ratioP2;P2;SDS_P1;SDS_P2;PMS_P1;PMS_P2;Temp;Humidity;BMP_temperature;BMP_pressure;BME280_temperature;BME280_humidity;BME280_pressure;Samples;Min_cycle;Max_cycle;Signal;HPM_P1;HPM_P2
2021/11/12 00:14:13;;;;;;;15.80;9.50;;;;;;;10.59;90.96;98850.94;5072385;28;20093;-66
2021/11/12 00:16:38;;;;;;;15.00;8.73;;;;;;;10.58;89.95;98852.69;5059782;28;20027;-65
2021/11/12 00:19:04;;;;;;;15.27;9.13;;;;;;;10.69;89.14;98853.50;5074329;28;20024;-65
2021/11/12 00:21:30;;;;;;;15.40;8.68;;;;;;;10.66;88.91;98861.56;5056293;28;20394;-65
2021/11/12 00:23:55;;;;;;;14.02;9.60;;;;;;;10.62;89.49;98847.22;5058365;28;20032;-65
2021/11/12 00:26:21;;;;;;;16.75;10.65;;;;;;;10.60;88.93;98846.53;5072117;28;20043;-65
2021/11/12 00:29:01;;;;;;;16.60;9.77;;;;;;;10.58;89.43;98847.47;5099645;27;20074;-64
2021/11/12 00:31:40;;;;;;;14.48;9.50;;;;;;;10.59;89.63;98848.31;5105151;27;20028;-63
2021/11/12 00:37:03;;;;;;;16.83;9.60;;;;;;;10.31;89.08;98798.00;5100539;27;19957;-65
2021/11/12 00:39:37;;;;;;;18.98;9.10;;;;;;;10.53;89.04;98834.09;5075244;28;20112;-65
2021/11/12 00:42:10;;;;;;;13.70;9.40;;;;;;;10.21;89.85;98790.19;5069792;28;20024;-64
2021/11/12 00:44:50;;;;;;;16.67;9.60;;;;;;;10.45;90.78;98820.97;5077944;28;20107;-63
2021/11/12 00:47:23;;;;;;;14.73;9.10;;;;;;;10.50;90.10;98826.56;5057715;28;20729;-64
2021/11/12 00:50:07;;;;;;;16.52;10.48;;;;;;;10.47;90.93;98824.25;5074529;28;20021;-64
2021/11/12 00:55:26;;;;;;;15.95;9.65;;;;;;;10.43;90.54;98811.66;5043774;28;20044;-64
2021/11/12 00:57:53;;;;;;;15.48;8.95;;;;;;;10.44;90.78;98815.91;5067329;28;20060;-64
2021/11/12 01:00:19;;;;;;;15.52;9.23;;;;;;;10.48;90.48;98818.09;5068738;28;20032;-64
2021/11/12 01:02:45;;;;;;;17.08;9.85;;;;;;;10.52;90.32;98816.03;5051116;28;20028;-66
2021/11/12 01:05:11;;;;;;;15.50;9.20;;;;;;;10.50;90.83;98823.97;5040774;28;20075;-65
2021/11/12 01:07:38;;;;;;;15.45;9.55;;;;;;;10.48;91.12;98812.91;5054124;28;20119;-64
2021/11/12 01:10:06;;;;;;;16.80;9.48;;;;;;;10.18;91.15;98767.06;5048517;28;20051;-64
2021/11/12 01:12:33;;;;;;;14.90;9.07;;;;;;;10.47;90.71;98802.63;5058799;28;20111;-65
2021/11/12 01:14:58;;;;;;;14.18;8.45;;;;;;;10.37;91.36;98798.28;5072490;28;20021;-66
2021/11/12 01:17:24;;;;;;;15.27;9.20;;;;;;;10.41;90.78;98801.41;5078277;28;20043;-65
2021/11/12 01:19:50;;;;;;;16.63;9.20;;;;;;;10.39;90.11;98796.34;5059845;28;20469;-65
2021/11/12 01:22:16;;;;;;;16.02;8.25;;;;;;;10.50;90.11;98797.16;5073147;28;20077;-64
2021/11/12 01:24:43;;;;;;;13.45;8.55;;;;;;;10.46;90.15;98793.19;5065389;28;20024;-65
2021/11/12 01:27:09;;;;;;;14.25;8.73;;;;;;;10.17;90.32;98763.66;5067258;28;20059;-65
2021/11/12 01:29:35;;;;;;;13.82;8.25;;;;;;;10.43;89.98;98798.69;5101263;27;20029;-65
2021/11/12 01:32:19;;;;;;;15.15;8.90;;;;;;;10.47;90.13;98798.25;5068587;28;20024;-65
2021/11/12 01:34:46;;;;;;;15.27;9.05;;;;;;;10.47;89.97;98800.84;5057354;28;20032;-66
2021/11/12 01:37:12;;;;;;;14.02;8.48;;;;;;;10.15;90.70;98768.16;5065264;28;20471;-64
2021/11/12 01:39:37;;;;;;;16.58;8.40;;;;;;;10.33;90.36;98804.72;5066045;28;20082;-66
2021/11/12 01:42:03;;;;;;;14.20;8.38;;;;;;;10.37;90.99;98806.06;5060790;28;20043;-65
2021/11/12 01:44:45;;;;;;;14.38;8.50;;;;;;;10.38;91.29;98805.09;5075937;28;20036;-65
2021/11/12 01:50:03;;;;;;;14.00;7.95;;;;;;;10.39;91.26;98804.13;5061373;28;20035;-64
2021/11/12 01:52:39;;;;;;;14.20;8.13;;;;;;;10.37;90.65;98803.47;5088682;27;20124;-65
2021/11/12 02:00:14;;;;;;;16.13;8.38;;;;;;;10.29;90.50;98799.88;5068991;28;20502;-65
2021/11/12 02:02:40;;;;;;;14.80;8.63;;;;;;;10.30;90.61;98791.13;5057771;28;20060;-67
2021/11/12 02:05:06;;;;;;;14.05;8.55;;;;;;;10.19;91.17;98792.09;5074091;28;20032;-65
2021/11/12 02:07:36;;;;;;;13.57;7.53;;;;;;;10.17;91.27;98787.03;5072905;28;20093;-66
2021/11/12 02:10:05;;;;;;;16.20;8.25;;;;;;;10.19;91.51;98784.31;5055999;28;20024;-64
2021/11/12 02:12:42;;;;;;;14.85;8.10;;;;;;;10.16;90.62;98782.78;5061050;28;20024;-67
2021/11/12 02:15:08;;;;;;;12.63;8.02;;;;;;;10.18;90.06;98774.84;5037802;28;20974;-65
2021/11/12 02:17:36;;;;;;;11.93;7.63;;;;;;;10.24;89.48;98774.31;5057213;28;20456;-64
2021/11/12 02:20:47;;;;;;;13.77;7.70;;;;;;;10.19;89.60;98769.53;5069062;28;20131;-65
2021/11/12 02:22:56;;;;;;;13.07;7.45;;;;;;;10.29;89.37;98766.91;5062190;28;20429;-65
2021/11/12 02:25:44;;;;;;;11.40;7.65;;;;;;;10.22;89.53;98763.22;5068913;28;20038;-64
2021/11/12 02:28:18;;;;;;;14.05;7.97;;;;;;;10.26;89.59;98758.56;5076039;28;20035;-66
2021/11/12 02:30:48;;;;;;;13.40;7.82;;;;;;;10.27;89.67;98755.84;5059022;28;20055;-65
2021/11/12 02:33:17;;;;;;;14.73;8.55;;;;;;;10.29;89.20;98753.09;5065410;28;20047;-65
2021/11/12 02:35:59;;;;;;;11.70;7.73;;;;;;;10.27;88.94;98758.44;5072085;28;20028;-67
2021/11/12 02:38:25;;;;;;;12.50;7.90;;;;;;;10.25;89.29;98756.94;5050629;28;20035;-67
2021/11/12 02:40:51;;;;;;;13.68;8.27;;;;;;;10.13;90.21;98757.09;5064029;28;20687;-65
2021/11/12 02:43:17;;;;;;;12.65;7.95;;;;;;;10.15;90.10;98746.56;5070721;28;20510;-64
2021/11/12 02:45:43;;;;;;;13.27;8.13;;;;;;;10.26;89.79;98756.81;5058764;28;20024;-64
2021/11/12 02:48:09;;;;;;;13.27;8.10;;;;;;;10.26;89.57;98743.81;5066248;28;20547;-65
2021/11/12 02:50:35;;;;;;;11.90;7.82;;;;;;;10.29;89.26;98758.28;5064782;28;20110;-65
2021/11/12 02:53:04;;;;;;;12.75;8.18;;;;;;;10.01;89.50;98711.44;5062039;28;20036;-66
2021/11/12 02:55:30;;;;;;;12.57;7.63;;;;;;;10.30;89.47;98757.34;5058384;28;20760;-64
2021/11/12 02:57:55;;;;;;;14.20;7.70;;;;;;;10.03;89.25;98721.69;5066807;28;20085;-65
2021/11/12 03:00:24;;;;;;;14.00;7.28;;;;;;;10.26;89.51;98754.22;5074052;28;20033;-65
2021/11/12 03:02:49;;;;;;;12.15;7.53;;;;;;;10.30;89.21;98755.56;5068794;28;20085;-64
2021/11/12 03:05:15;;;;;;;16.38;8.48;;;;;;;10.25;88.74;98746.53;5065795;28;20028;-64
2021/11/12 03:07:40;;;;;;;12.23;7.60;;;;;;;10.29;89.41;98761.72;5071058;28;20487;-64
2021/11/12 03:10:06;;;;;;;15.05;8.25;;;;;;;10.28;89.48;98760.09;5059066;28;20425;-67
2021/11/12 03:12:32;;;;;;;14.27;7.47;;;;;;;10.22;89.37;98760.63;5070375;28;20044;-64
2021/11/12 03:14:57;;;;;;;13.07;8.35;;;;;;;10.21;89.44;98759.00;5072531;28;20143;-64
2021/11/12 03:17:23;;;;;;;13.32;7.78;;;;;;;10.13;89.71;98764.88;5063843;28;20036;-64
2021/11/12 03:19:49;;;;;;;12.38;7.70;;;;;;;9.85;89.70;98724.16;5073348;28;20392;-67
2021/11/12 03:22:17;;;;;;;12.18;7.47;;;;;;;10.08;89.50;98763.66;5058561;28;20067;-65
2021/11/12 03:24:48;;;;;;;14.57;7.93;;;;;;;9.84;89.29;98717.31;5049335;28;20020;-63
2021/11/12 03:27:35;;;;;;;14.30;7.78;;;;;;;10.06;88.99;98768.16;5108060;27;20035;-65
2021/11/12 04:00:37;;;;;;;13.38;8.13;;;;;;;9.37;89.04;98721.38;5074342;28;20125;-66
2021/11/12 04:03:12;;;;;;;12.80;7.53;;;;;;;9.56;88.96;98762.13;5056586;28;20034;-64
2021/11/12 05:46:18;;;;;;;15.90;9.75;;;;;;;8.46;88.03;98793.09;5075834;28;20603;-65
2021/11/12 05:56:49;;;;;;;14.52;9.20;;;;;;;8.32;88.80;98781.22;5073218;28;20631;-65
2021/11/12 05:59:15;;;;;;;16.13;9.05;;;;;;;8.46;88.24;98783.53;5061827;28;20036;-66
2021/11/12 06:01:42;;;;;;;16.02;9.20;;;;;;;8.48;87.97;98795.56;5076555;28;20143;-67
2021/11/12 06:04:08;;;;;;;15.70;9.13;;;;;;;8.05;88.42;98750.66;5059094;28;20032;-66
2021/11/12 06:06:33;;;;;;;18.80;9.95;;;;;;;8.35;87.87;98799.13;5072689;28;20036;-65
2021/11/12 06:09:00;;;;;;;16.83;10.00;;;;;;;8.53;87.70;98802.00;5064435;28;20705;-66
2021/11/12 06:11:27;;;;;;;16.45;9.10;;;;;;;8.41;88.47;98795.19;5063751;28;20033;-65
2021/11/12 06:13:54;;;;;;;17.23;9.30;;;;;;;8.45;88.45;98804.38;5068008;28;20482;-65
2021/11/12 06:16:19;;;;;;;16.95;8.95;;;;;;;8.37;88.27;98801.59;5073978;28;20016;-65
2021/11/12 06:18:45;;;;;;;16.30;8.50;;;;;;;8.19;88.63;98798.72;5063657;28;20321;-66
2021/11/12 06:21:11;;;;;;;16.23;9.88;;;;;;;8.28;88.21;98795.38;5055165;28;20059;-66
2021/11/12 06:23:37;;;;;;;16.83;9.07;;;;;;;8.38;87.75;98793.69;5066404;28;20036;-65
2021/11/12 06:26:03;;;;;;;14.88;8.35;;;;;;;8.37;88.06;98801.59;5065587;28;20082;-65
2021/11/12 06:28:29;;;;;;;15.18;8.57;;;;;;;8.30;88.03;98803.84;5052117;28;20621;-66
2021/11/12 06:30:56;;;;;;;18.95;8.68;;;;;;;8.28;87.83;98795.38;5056799;28;20495;-66
2021/11/12 06:33:23;;;;;;;15.93;8.55;;;;;;;8.18;88.52;98800.50;5065094;28;20135;-66
2021/11/12 06:35:48;;;;;;;16.52;9.85;;;;;;;8.17;88.71;98805.81;5037484;28;20112;-66
2021/11/12 06:38:16;;;;;;;16.85;9.70;;;;;;;8.00;87.98;98752.81;5058433;28;20024;-67
2021/11/12 06:40:41;;;;;;;17.80;9.55;;;;;;;8.32;87.65;98808.91;5069560;28;20842;-66
2021/11/12 06:43:20;;;;;;;16.00;9.27;;;;;;;8.31;87.45;98813.28;5061165;28;20032;-69
2021/11/12 06:51:14;;;;;;;16.50;9.38;;;;;;;8.37;87.66;98824.91;5069335;28;20042;-67
2021/11/12 06:53:40;;;;;;;20.95;10.25;;;;;;;8.35;87.98;98827.63;5064580;28;20070;-67
2021/11/12 06:56:05;;;;;;;16.55;10.07;;;;;;;8.31;87.35;98825.44;5068056;28;20039;-68
2021/11/12 06:58:31;;;;;;;17.75;10.13;;;;;;;8.30;87.71;98823.78;5058864;28;20016;-68
2021/11/12 07:00:57;;;;;;;20.00;10.35;;;;;;;8.35;87.88;98835.41;5064351;28;20063;-67
2021/11/12 07:03:24;;;;;;;19.95;10.13;;;;;;;8.33;87.57;98826.13;5053490;28;20059;-68
2021/11/12 07:05:50;;;;;;;16.65;10.07;;;;;;;8.21;87.76;98823.59;5049183;28;20036;-68
2021/11/12 07:08:15;;;;;;;21.30;10.88;;;;;;;7.88;88.93;98783.09;5060148;28;20024;-68
2021/11/12 07:10:41;;;;;;;15.93;10.45;;;;;;;8.18;89.26;98833.38;5070695;28;20035;-68
2021/11/12 07:13:07;;;;;;;17.13;10.38;;;;;;;8.19;88.98;98835.00;5109686;27;20942;-68
2021/11/12 07:15:33;;;;;;;18.50;10.25;;;;;;;8.15;89.51;98841.38;5074074;28;20027;-68
2021/11/12 07:17:58;;;;;;;18.00;10.73;;;;;;;7.93;89.08;98803.44;5074984;28;20050;-68
2021/11/12 07:20:24;;;;;;;16.08;9.25;;;;;;;8.22;88.96;98843.34;5077056;28;20047;-68
2021/11/12 07:22:49;;;;;;;14.82;9.90;;;;;;;8.09;89.08;98821.97;5052393;28;20028;-68
2021/11/12 07:25:14;;;;;;;16.35;9.60;;;;;;;8.17;89.14;98845.47;5077417;28;20034;-68
2021/11/12 07:27:40;;;;;;;27.15;14.95;;;;;;;8.32;88.96;98853.78;5054943;28;20446;-68
2021/11/12 07:30:09;;;;;;;46.03;28.95;;;;;;;8.39;88.38;98860.09;5075202;28;20028;-67
2021/11/12 07:32:35;;;;;;;33.45;21.55;;;;;;;8.07;88.26;98814.31;5059869;28;20115;-67
2021/11/12 07:35:01;;;;;;;34.95;20.33;;;;;;;8.41;88.78;98862.56;5068134;28;20115;-67
2021/11/12 07:37:29;;;;;;;35.63;20.08;;;;;;;8.41;88.57;98850.44;5051892;28;20119;-68
2021/11/12 07:39:55;;;;;;;27.08;18.33;;;;;;;8.40;89.30;98858.34;5100572;27;20378;-67
2021/11/12 07:42:36;;;;;;;28.33;18.17;;;;;;;8.41;89.59;98858.22;5076531;28;20036;-67
2021/11/12 07:47:30;;;;;;;24.40;13.95;;;;;;;8.12;88.92;98821.72;5069341;28;20067;-67
2021/11/12 07:49:58;;;;;;;22.25;12.88;;;;;;;8.38;90.14;98858.47;5052257;28;20097;-67
2021/11/12 07:52:29;;;;;;;27.45;14.32;;;;;;;8.25;90.28;98835.34;5088934;28;20175;-68
2021/11/12 07:54:56;;;;;;;23.17;11.50;;;;;;;8.51;92.10;98870.47;5078142;28;20039;-68
2021/11/12 07:57:21;;;;;;;21.17;12.20;;;;;;;8.53;91.18;98868.56;5068542;28;20039;-67
2021/11/12 07:59:47;;;;;;;20.45;12.77;;;;;;;8.53;91.21;98864.22;5109227;27;20882;-67
2021/11/12 08:02:17;;;;;;;21.63;11.75;;;;;;;8.23;91.63;98826.88;5058397;28;20520;-67
2021/11/12 08:04:43;;;;;;;23.42;11.32;;;;;;;8.55;92.64;98867.50;5073421;28;20085;-67
2021/11/12 08:07:09;;;;;;;19.92;10.18;;;;;;;8.69;94.32;98876.75;5056210;28;20020;-67
2021/11/12 08:09:38;;;;;;;15.98;9.55;;;;;;;8.73;95.13;98872.13;5060379;28;20411;-67
2021/11/12 08:12:07;;;;;;;20.30;11.00;;;;;;;8.73;94.64;98867.75;5073538;28;20430;-67
2021/11/12 08:14:40;;;;;;;16.80;9.55;;;;;;;8.80;93.57;98881.03;5077990;28;20108;-68
2021/11/12 08:17:51;;;;;;;21.23;10.30;;;;;;;8.77;93.51;98869.13;5069716;28;20036;-68
2021/11/12 08:25:15;;;;;;;15.65;9.20;;;;;;;8.82;94.20;98868.78;5068473;28;20036;-68
2021/11/12 08:27:53;;;;;;;14.63;9.07;;;;;;;8.87;94.23;98866.63;5072791;28;20031;-68
2021/11/12 08:41:16;;;;;;;15.50;9.13;;;;;;;9.01;94.66;98855.09;5071531;28;20041;-68
2021/11/12 08:43:54;;;;;;;16.50;8.73;;;;;;;9.07;95.19;98869.31;5071002;28;20036;-68
2021/11/12 08:46:29;;;;;;;12.88;8.15;;;;;;;8.88;95.37;98818.16;5067430;28;20135;-67
2021/11/12 08:49:01;;;;;;;16.38;9.02;;;;;;;9.13;95.47;98851.47;5079404;28;20046;-68
2021/11/12 08:51:33;;;;;;;13.70;8.20;;;;;;;9.16;95.15;98851.22;5076625;28;20813;-67
2021/11/12 08:53:58;;;;;;;16.83;8.85;;;;;;;9.20;95.24;98864.75;5068597;28;20504;-67
2021/11/12 08:56:24;;;;;;;19.52;8.80;;;;;;;9.17;94.49;98854.63;5062345;28;20032;-67
2021/11/12 08:58:51;;;;;;;14.43;8.60;;;;;;;9.19;94.81;98863.91;5056175;28;20028;-67
2021/11/12 09:01:17;;;;;;;13.82;8.90;;;;;;;9.33;94.38;98874.91;5076273;28;20032;-68
2021/11/12 09:03:44;;;;;;;18.30;9.55;;;;;;;9.31;94.41;98862.06;5058264;28;20163;-68
2021/11/12 09:06:10;;;;;;;19.88;9.80;;;;;;;9.32;93.50;98855.91;5070594;28;20016;-68
2021/11/12 09:08:36;;;;;;;19.45;10.32;;;;;;;9.36;93.63;98859.91;5076358;28;20032;-68
2021/11/12 09:11:04;;;;;;;21.63;11.98;;;;;;;9.44;93.52;98864.44;5072889;28;20058;-67
2021/11/12 09:13:47;;;;;;;29.75;13.25;;;;;;;9.37;93.61;98858.94;5065261;28;20067;-68
2021/11/12 09:16:14;;;;;;;40.08;14.57;;;;;;;9.38;93.89;98865.78;5059341;28;20024;-67
2021/11/12 09:18:42;;;;;;;30.77;13.73;;;;;;;9.43;93.91;98866.19;5054096;28;20028;-68
2021/11/12 09:21:08;;;;;;;22.10;13.40;;;;;;;9.44;93.88;98861.84;5068767;28;20025;-67
2021/11/12 09:23:34;;;;;;;21.75;12.65;;;;;;;9.34;94.49;98856.59;5072930;28;20399;-68
2021/11/12 09:26:00;;;;;;;20.98;13.13;;;;;;;9.30;95.08;98857.81;5069489;28;20027;-68
2021/11/12 09:28:25;;;;;;;17.73;11.30;;;;;;;9.27;95.35;98858.06;5075925;28;20107;-68
2021/11/12 09:30:51;;;;;;;17.23;10.80;;;;;;;9.29;95.81;98853.59;5050667;28;20516;-68
2021/11/12 09:33:17;;;;;;;14.38;9.05;;;;;;;9.51;95.49;98857.75;5072580;28;20085;-68
2021/11/12 09:35:42;;;;;;;16.58;10.65;;;;;;;9.45;95.36;98862.66;5071728;28;20071;-68
2021/11/12 09:38:08;;;;;;;17.42;9.88;;;;;;;9.45;95.64;98867.84;5064683;28;20036;-68
2021/11/12 09:40:34;;;;;;;16.30;9.43;;;;;;;9.38;94.98;98865.78;5065491;28;20030;-68
2021/11/12 09:43:00;;;;;;;13.18;7.88;;;;;;;9.41;94.97;98852.53;5068163;28;20028;-68
2021/11/12 09:45:25;;;;;;;14.38;8.55;;;;;;;9.61;93.80;98858.59;5063419;28;20565;-67
2021/11/12 09:47:54;;;;;;;13.25;8.27;;;;;;;9.63;93.63;98855.88;5068059;28;20322;-66
2021/11/12 09:50:25;;;;;;;14.40;8.25;;;;;;;9.65;94.22;98853.16;5067238;28;20138;-68
2021/11/12 09:52:52;;;;;;;15.52;8.73;;;;;;;9.41;94.38;98816.19;5058563;28;20086;-66
2021/11/12 09:55:19;;;;;;;13.38;8.73;;;;;;;9.69;94.95;98850.16;5059500;28;20551;-66
2021/11/12 09:57:45;;;;;;;13.40;8.25;;;;;;;9.83;93.68;98851.53;5053789;28;20032;-68
2021/11/12 10:00:15;;;;;;;15.57;9.38;;;;;;;9.90;94.28;98851.84;5057501;28;20040;-67
2021/11/12 10:02:42;;;;;;;17.80;10.00;;;;;;;9.84;93.83;98845.41;5065766;28;20024;-67
2021/11/12 10:05:13;;;;;;;17.05;9.50;;;;;;;9.90;93.62;98842.25;5089387;27;20142;-67
2021/11/12 10:07:39;;;;;;;14.55;9.77;;;;;;;9.83;94.24;98828.16;5059019;28;20053;-67
2021/11/12 10:10:08;;;;;;;12.93;8.88;;;;;;;10.04;93.74;98842.81;5066089;28;20029;-67
2021/11/12 10:12:46;;;;;;;15.00;9.18;;;;;;;10.10;93.58;98834.50;5070131;28;20029;-66
2021/11/12 10:15:16;;;;;;;14.75;8.23;;;;;;;10.22;93.38;98830.78;5065706;28;20110;-67
2021/11/12 10:17:43;;;;;;;14.32;8.50;;;;;;;10.21;92.92;98826.56;5069802;28;20032;-66
2021/11/12 10:20:11;;;;;;;12.43;8.25;;;;;;;10.32;92.26;98833.44;5062831;28;20047;-66
2021/11/12 10:26:06;;;;;;;13.18;7.75;;;;;;;10.42;91.53;98841.22;5013080;27;20574;-66
2021/11/12 10:28:36;;;;;;;12.77;8.55;;;;;;;10.20;90.87;98781.56;5068704;28;20078;-67
2021/11/12 10:31:17;;;;;;;14.68;8.18;;;;;;;10.56;89.26;98827.78;5069702;28;20024;-69
2021/11/12 10:33:48;;;;;;;16.00;7.70;;;;;;;10.65;89.25;98826.16;5078713;28;20063;-67
2021/11/12 10:36:13;;;;;;;15.63;8.85;;;;;;;10.58;89.16;98818.88;5071004;28;20728;-66
2021/11/12 10:38:44;;;;;;;12.90;7.63;;;;;;;10.68;87.37;98821.47;5066464;28;20021;-68
2021/11/12 10:41:29;;;;;;;12.45;7.45;;;;;;;10.45;87.59;98781.97;5068310;28;20461;-67
2021/11/12 10:43:55;;;;;;;11.82;7.05;;;;;;;10.75;87.80;98821.72;5056096;28;20123;-67
2021/11/12 10:46:42;;;;;;;13.70;8.05;;;;;;;10.70;88.24;98811.75;5063868;28;20108;-66
2021/11/12 10:49:29;;;;;;;14.25;8.38;;;;;;;10.81;88.52;98797.78;5046031;28;20032;-66
2021/11/12 10:52:00;;;;;;;13.90;7.78;;;;;;;10.74;88.13;98794.09;5049375;28;20051;-67
2021/11/12 10:55:18;;;;;;;13.85;7.97;;;;;;;10.75;86.49;98790.50;5054590;28;20036;-67
2021/11/12 10:57:27;;;;;;;15.40;7.65;;;;;;;10.83;86.58;98780.22;5060247;28;20052;-67
2021/11/12 11:00:21;;;;;;;13.82;7.72;;;;;;;10.96;86.72;98798.13;5069280;28;20115;-68
2021/11/12 11:02:58;;;;;;;13.68;7.30;;;;;;;10.70;85.98;98751.13;5065203;28;20021;-67
2021/11/12 11:05:33;;;;;;;13.57;7.63;;;;;;;10.95;84.79;98793.88;5052547;28;20032;-69
2021/11/12 11:08:03;;;;;;;15.23;6.93;;;;;;;10.85;83.08;98756.69;5057659;28;20028;-67
2021/11/12 11:10:32;;;;;;;12.73;6.38;;;;;;;11.16;81.44;98796.28;5006055;28;20150;-66
2021/11/12 11:13:11;;;;;;;11.43;7.13;;;;;;;11.24;81.71;98801.56;5048607;28;20035;-67
2021/11/12 11:15:50;;;;;;;13.55;7.60;;;;;;;11.28;81.58;98800.31;5065455;28;20044;-67
2021/11/12 11:18:50;;;;;;;10.77;6.40;;;;;;;11.37;82.28;98796.00;5063727;28;20029;-68
2021/11/12 11:24:04;;;;;;;11.90;7.40;;;;;;;11.60;80.54;98740.94;5060354;28;20044;-67
2021/11/12 11:26:43;;;;;;;13.70;7.38;;;;;;;11.85;79.23;98755.81;5049231;28;20032;-67
2021/11/12 11:29:12;;;;;;;13.43;7.43;;;;;;;11.85;78.53;98735.00;5065500;28;20794;-67
2021/11/12 11:31:38;;;;;;;12.00;7.53;;;;;;;12.11;79.31;98768.13;5063314;28;20069;-68
2021/11/12 11:34:04;;;;;;;13.95;7.75;;;;;;;12.13;78.24;98757.56;5056328;28;20033;-68
2021/11/12 11:36:32;;;;;;;13.55;7.78;;;;;;;12.36;78.32;98752.66;5068843;28;20040;-67
2021/11/12 11:39:00;;;;;;;12.00;7.45;;;;;;;12.22;79.77;98725.38;5053643;28;20634;-68
2021/11/12 11:41:27;;;;;;;12.65;7.03;;;;;;;12.45;80.30;98747.38;4970546;28;20894;-67
2021/11/12 11:43:53;;;;;;;12.25;7.32;;;;;;;12.40;80.23;98747.00;5066294;28;20032;-68
2021/11/12 11:46:31;;;;;;;13.73;7.20;;;;;;;12.40;81.30;98741.78;5056204;28;20032;-67
2021/11/12 11:48:58;;;;;;;11.80;7.13;;;;;;;12.40;80.67;98739.16;5057000;28;20052;-68
2021/11/12 11:51:37;;;;;;;13.35;7.35;;;;;;;12.32;80.04;98728.72;5069292;28;20039;-67
2021/11/12 11:54:10;;;;;;;11.65;6.72;;;;;;;12.45;79.76;98738.72;5072933;28;20023;-67
2021/11/12 11:56:42;;;;;;;12.30;6.57;;;;;;;12.29;78.44;98695.09;5040573;28;20113;-68
2021/11/12 11:59:20;;;;;;;11.93;6.93;;;;;;;12.54;77.51;98722.16;5072443;28;20032;-68
2021/11/12 12:01:56;;;;;;;14.18;7.78;;;;;;;12.58;76.54;98722.66;5054229;28;20147;-67
2021/11/12 12:05:07;;;;;;;14.00;7.45;;;;;;;12.44;77.00;98690.13;5070280;28;20856;-67
2021/11/12 12:07:54;;;;;;;12.18;7.15;;;;;;;12.64;77.13;98715.03;5048248;28;20044;-67
2021/11/12 12:10:25;;;;;;;13.18;7.50;;;;;;;12.69;76.50;98714.56;5067739;28;20027;-67
2021/11/12 12:12:55;;;;;;;12.52;7.63;;;;;;;12.92;74.14;98712.19;5068990;28;20024;-67
2021/11/12 12:15:22;;;;;;;13.32;7.10;;;;;;;13.14;74.35;98708.22;5068791;28;20028;-67
2021/11/12 12:17:49;;;;;;;13.05;7.82;;;;;;;13.14;74.42;98707.38;5069546;28;20118;-69
2021/11/12 12:36:54;;;;;;;14.90;7.80;;;;;;;13.30;75.84;98694.38;5104647;27;20067;-61
2021/11/12 13:20:43;;;;;;;12.80;7.18;;;;;;;14.02;67.40;98652.81;5076646;28;20094;-61
2021/11/12 13:25:53;;;;;;;12.52;7.30;;;;;;;14.22;70.51;98644.59;5069809;28;20098;-61
2021/11/12 13:28:27;;;;;;;10.63;6.82;;;;;;;14.22;70.27;98642.00;5067674;28;20052;-61
2021/11/12 13:31:12;;;;;;;10.23;6.40;;;;;;;14.30;72.21;98638.53;5070458;28;20028;-61
2021/11/12 13:33:54;;;;;;;14.27;6.65;;;;;;;14.19;73.10;98627.44;5063170;28;20098;-61
2021/11/12 13:36:29;;;;;;;12.88;6.45;;;;;;;14.00;71.33;98599.88;5102827;27;20025;-63
2021/11/12 13:39:07;;;;;;;14.35;7.22;;;;;;;14.17;67.06;98589.38;5068164;28;20498;-63
2021/11/12 13:41:41;;;;;;;11.90;6.90;;;;;;;14.42;68.19;98632.78;5069329;28;20534;-63
2021/11/12 13:44:13;;;;;;;12.57;6.65;;;;;;;14.11;67.69;98593.47;5056405;28;20037;-63
2021/11/12 13:46:53;;;;;;;11.23;6.43;;;;;;;14.25;68.02;98628.56;5090684;28;20024;-63
2021/11/12 13:49:27;;;;;;;11.40;6.97;;;;;;;14.33;67.52;98627.72;5070443;28;20033;-62
2021/11/12 13:51:58;;;;;;;11.38;6.72;;;;;;;14.45;66.30;98646.50;5053015;28;20032;-63
2021/11/12 13:54:24;;;;;;;12.55;7.15;;;;;;;14.46;66.35;98650.75;5056971;28;20032;-62
2021/11/12 13:56:49;;;;;;;10.70;6.93;;;;;;;14.39;65.73;98642.75;5067099;28;20443;-62
2021/11/12 13:59:15;;;;;;;9.52;6.28;;;;;;;14.35;66.63;98644.09;5072159;28;20036;-63
2021/11/12 14:01:41;;;;;;;11.43;6.60;;;;;;;14.27;67.23;98637.06;5109018;27;20028;-62
2021/11/12 14:04:24;;;;;;;12.10;7.00;;;;;;;14.28;68.27;98643.94;5070765;28;20032;-62
2021/11/12 14:06:50;;;;;;;13.27;7.93;;;;;;;14.34;67.64;98635.41;5072540;28;20058;-62
2021/11/12 14:09:19;;;;;;;13.73;8.35;;;;;;;14.25;67.04;98612.06;5073941;28;20059;-62
2021/11/12 14:11:45;;;;;;;17.38;8.80;;;;;;;14.53;67.01;98652.53;5071640;28;20028;-62
2021/11/12 14:14:21;;;;;;;13.65;8.18;;;;;;;14.52;67.08;98650.88;5070126;28;20040;-62
2021/11/12 14:22:15;;;;;;;14.38;7.75;;;;;;;14.65;67.02;98652.97;5075734;28;20567;-62
2021/11/12 14:27:33;;;;;;;18.92;8.40;;;;;;;14.60;66.62;98666.59;5048433;27;21449;-62
2021/11/12 14:38:22;;;;;;;16.52;8.82;;;;;;;14.39;67.50;98629.69;5067281;28;20399;-62
2021/11/12 14:41:36;;;;;;;15.43;8.70;;;;;;;14.32;68.57;98636.56;5067454;28;20133;-62
2021/11/12 14:47:27;;;;;;;12.98;8.60;;;;;;;14.08;69.66;98643.47;5016060;28;20136;-61
2021/11/12 14:50:07;;;;;;;14.25;8.98;;;;;;;13.98;70.08;98642.84;5029458;28;20037;-62
2021/11/12 14:52:32;;;;;;;15.40;8.00;;;;;;;13.90;70.28;98643.66;5056765;28;20036;-63
2021/11/12 14:55:09;;;;;;;15.13;8.25;;;;;;;13.86;70.33;98642.38;5062305;28;20043;-63
2021/11/12 14:57:38;;;;;;;14.93;8.68;;;;;;;13.46;71.31;98583.94;5082462;28;20039;-62
2021/11/12 15:00:12;;;;;;;13.13;8.63;;;;;;;13.78;71.23;98652.81;5037016;27;20310;-62
2021/11/12 15:02:39;;;;;;;18.60;8.88;;;;;;;13.70;71.68;98650.22;5061717;28;20024;-62
2021/11/12 15:05:05;;;;;;;16.80;8.43;;;;;;;13.67;71.92;98650.53;5053662;28;20616;-62
2021/11/12 15:07:43;;;;;;;14.98;8.52;;;;;;;13.63;72.32;98653.50;5052187;28;20094;-62
2021/11/12 15:10:13;;;;;;;16.42;9.45;;;;;;;13.54;72.82;98645.78;5048912;28;20415;-61
2021/11/12 15:12:41;;;;;;;16.30;9.27;;;;;;;13.27;73.08;98617.19;5063630;28;20044;-61
2021/11/12 15:15:07;;;;;;;16.63;9.07;;;;;;;13.38;73.57;98639.59;5005744;28;20175;-62
2021/11/12 15:17:32;;;;;;;16.48;9.23;;;;;;;13.35;73.81;98652.16;5050023;28;20449;-62
2021/11/12 15:19:59;;;;;;;17.75;9.73;;;;;;;13.12;73.95;98616.16;5057709;28;20645;-62
2021/11/12 15:25:48;;;;;;;17.55;9.70;;;;;;;13.23;73.83;98634.16;5009221;28;20156;-62
2021/11/12 15:31:00;;;;;;;19.33;10.15;;;;;;;12.86;74.80;98604.06;4944764;28;20044;-62
2021/11/12 15:33:27;;;;;;;20.63;11.35;;;;;;;12.89;74.65;98606.34;5050610;28;20401;-62
2021/11/12 15:35:54;;;;;;;20.15;12.18;;;;;;;12.96;74.93;98623.97;5059146;28;20132;-61
2021/11/12 15:38:31;;;;;;;18.40;11.65;;;;;;;13.15;74.77;98649.00;5047539;28;20028;-62
2021/11/12 15:41:03;;;;;;;17.60;11.43;;;;;;;13.11;74.96;98650.28;5051374;28;20038;-61
2021/11/12 15:43:39;;;;;;;17.83;11.63;;;;;;;13.03;75.45;98649.31;5036392;28;20032;-61
2021/11/12 15:46:16;;;;;;;22.10;12.60;;;;;;;12.82;75.76;98630.63;5006762;28;20063;-63
2021/11/12 15:48:43;;;;;;;22.35;12.90;;;;;;;12.67;75.64;98602.53;5063853;28;20179;-62
2021/11/12 15:54:06;;;;;;;20.85;11.57;;;;;;;12.87;75.93;98651.84;5055222;28;20063;-61
2021/11/12 16:26:18;;;;;;;19.42;11.13;;;;;;;12.43;78.12;98676.28;5067563;28;20062;-61
2021/11/12 16:31:27;;;;;;;22.77;14.05;;;;;;;12.37;78.64;98689.13;5062655;28;20039;-61
2021/11/12 16:33:53;;;;;;;18.13;12.40;;;;;;;12.33;78.83;98691.22;5065893;28;20028;-62
2021/11/12 16:36:19;;;;;;;21.10;11.57;;;;;;;12.30;79.07;98702.78;5065898;28;20059;-61
2021/11/12 16:38:44;;;;;;;19.15;11.93;;;;;;;12.24;79.51;98702.56;5065164;28;20173;-61
2021/11/12 16:41:13;;;;;;;18.90;11.93;;;;;;;12.21;79.36;98710.69;5065127;28;20028;-61
2021/11/12 16:53:55;;;;;;;20.70;12.07;;;;;;;12.13;79.77;98721.06;5059983;28;20041;-62
2021/11/12 16:59:11;;;;;;;24.90;12.95;;;;;;;12.09;79.88;98725.75;5065103;28;20651;-62
2021/11/12 17:07:14;;;;;;;21.40;13.00;;;;;;;12.01;80.74;98731.75;5064626;28;20040;-62
2021/11/12 17:09:52;;;;;;;24.33;12.75;;;;;;;11.79;80.13;98690.47;5050178;28;20483;-61
2021/11/12 17:12:44;;;;;;;22.00;12.57;;;;;;;12.03;80.35;98729.78;5066329;28;20032;-61
2021/11/12 17:15:21;;;;;;;19.33;12.98;;;;;;;11.89;81.14;98735.50;5064961;28;20463;-61
2021/11/12 17:18:15;;;;;;;22.75;14.13;;;;;;;11.85;80.94;98727.16;5094987;27;20597;-61